createdAt,value
2019-02-16T00:01:01.941Z,23.28
2019-02-16T00:03:28.709Z,23.27
2019-02-16T00:05:55.373Z,23.30
2019-02-16T00:08:22.074Z,23.29
2019-02-16T00:10:48.726Z,23.32
2019-02-16T00:13:15.441Z,23.34
2019-02-16T00:15:42.104Z,23.28
2019-02-16T00:18:08.763Z,23.30
2019-02-16T00:20:35.486Z,23.35
2019-02-16T00:23:02.145Z,23.32
2019-02-16T00:25:28.811Z,23.35
2019-02-16T00:27:55.464Z,23.31
2019-02-16T00:30:22.146Z,23.36
2019-02-16T00:32:48.812Z,23.33
2019-02-16T00:35:15.516Z,23.36
2019-02-16T00:37:42.158Z,23.31
2019-02-16T00:40:08.841Z,23.35
2019-02-16T00:42:35.488Z,23.33
2019-02-16T00:45:02.293Z,23.31
2019-02-16T00:47:28.939Z,23.33
2019-02-16T00:49:55.584Z,23.36
2019-02-16T00:52:22.247Z,23.31
2019-02-16T00:54:48.922Z,23.29
2019-02-16T00:57:15.599Z,23.32
2019-02-16T00:59:42.304Z,23.36
2019-02-16T01:02:08.963Z,23.33
2019-02-16T01:04:35.607Z,23.33
2019-02-16T01:07:02.262Z,23.30
2019-02-16T01:09:28.922Z,23.28
2019-02-16T01:11:55.583Z,23.31
2019-02-16T01:14:22.246Z,23.36
2019-02-16T01:16:48.963Z,23.38
2019-02-16T01:19:15.633Z,23.33
2019-02-16T01:21:42.354Z,23.34
2019-02-16T01:24:09.052Z,23.37
2019-02-16T01:26:35.720Z,23.34
2019-02-16T01:29:02.384Z,23.31
2019-02-16T01:31:29.097Z,23.32
2019-02-16T01:33:55.815Z,23.38
2019-02-16T01:36:22.474Z,23.39
2019-02-16T01:38:49.218Z,23.34
2019-02-16T01:41:15.924Z,23.38
2019-02-16T01:43:42.641Z,23.40
2019-02-16T01:46:09.304Z,23.36
2019-02-16T01:48:35.969Z,23.33
2019-02-16T01:51:02.631Z,23.37
2019-02-16T01:53:29.274Z,23.38
2019-02-16T01:55:55.993Z,23.31
2019-02-16T01:58:22.644Z,23.37
2019-02-16T02:00:49.310Z,23.35
2019-02-16T02:03:15.962Z,23.35
2019-02-16T02:05:42.662Z,23.38
2019-02-16T02:08:09.308Z,23.30
2019-02-16T02:10:36.022Z,23.36
2019-02-16T02:13:02.688Z,23.36
2019-02-16T02:15:29.337Z,23.36
2019-02-16T02:17:55.991Z,23.33
2019-02-16T02:20:22.678Z,23.38
2019-02-16T02:22:49.374Z,23.35
2019-02-16T02:25:16.037Z,23.36
2019-02-16T02:27:42.752Z,23.34
2019-02-16T02:30:09.412Z,23.34
2019-02-16T02:32:36.071Z,23.39
2019-02-16T02:35:02.776Z,23.36
2019-02-16T02:37:29.431Z,23.36
2019-02-16T02:39:56.156Z,23.34
2019-02-16T02:42:22.799Z,23.34
2019-02-16T02:44:49.477Z,23.39
2019-02-16T02:47:16.138Z,23.38
2019-02-16T02:49:42.812Z,23.36
2019-02-16T02:52:09.469Z,23.36
2019-02-16T02:54:36.175Z,23.36
2019-02-16T02:57:02.884Z,23.35
2019-02-16T02:59:29.505Z,23.36
2019-02-16T03:01:56.166Z,23.37
2019-02-16T03:04:22.912Z,23.37
2019-02-16T03:06:49.523Z,23.39
2019-02-16T03:09:16.186Z,23.38
2019-02-16T03:11:42.865Z,23.33
2019-02-16T03:14:09.526Z,23.31
2019-02-16T03:16:36.244Z,23.37
2019-02-16T03:19:02.902Z,23.40
2019-02-16T03:21:29.552Z,23.39
2019-02-16T03:23:56.267Z,23.34
2019-02-16T03:26:23.000Z,23.36
2019-02-16T03:28:49.712Z,23.38
2019-02-16T03:31:16.439Z,23.39
2019-02-16T03:33:43.085Z,23.41
2019-02-16T03:36:09.723Z,23.38
2019-02-16T03:38:36.392Z,23.39
2019-02-16T03:41:03.098Z,23.36
2019-02-16T03:43:29.751Z,23.36
2019-02-16T03:45:56.408Z,23.36
2019-02-16T03:48:23.161Z,23.39
2019-02-16T03:50:49.813Z,23.37
2019-02-16T03:53:16.478Z,23.40
2019-02-16T03:55:43.153Z,23.36
2019-02-16T03:58:09.830Z,23.37
2019-02-16T04:00:36.460Z,23.36
2019-02-16T04:03:03.120Z,23.32
2019-02-16T04:05:29.787Z,23.31
2019-02-16T04:07:56.452Z,23.36
2019-02-16T04:10:23.169Z,23.35
2019-02-16T04:12:49.814Z,23.30
2019-02-16T04:15:16.512Z,23.35
2019-02-16T04:17:43.178Z,23.36
2019-02-16T04:20:09.824Z,23.33
2019-02-16T04:22:36.703Z,23.33
2019-02-16T04:25:03.359Z,23.29
2019-02-16T04:27:30.018Z,23.33
2019-02-16T04:29:56.689Z,23.31
2019-02-16T04:32:23.362Z,23.32
2019-02-16T04:34:50.061Z,23.34
2019-02-16T04:37:16.713Z,23.36
2019-02-16T04:39:43.393Z,23.29
2019-02-16T04:42:11.428Z,23.35
2019-02-16T04:44:38.021Z,23.29
2019-02-16T04:47:03.429Z,23.31
2019-02-16T04:49:30.079Z,23.30
2019-02-16T04:51:56.745Z,23.25
2019-02-16T04:54:23.394Z,23.31
2019-02-16T04:56:50.091Z,23.29
2019-02-16T04:59:16.815Z,23.26
2019-02-16T05:01:43.476Z,23.26
2019-02-16T05:04:10.124Z,23.20
2019-02-16T05:06:36.909Z,23.22
2019-02-16T05:09:03.562Z,23.19
2019-02-16T05:11:30.221Z,23.21
2019-02-16T05:13:56.908Z,23.25
2019-02-16T05:16:23.571Z,23.23
2019-02-16T05:18:50.239Z,23.22
2019-02-16T05:21:16.916Z,23.22
2019-02-16T05:23:43.627Z,23.23
2019-02-16T05:26:10.283Z,23.14
2019-02-16T05:28:36.964Z,23.16
2019-02-16T05:31:03.637Z,23.13
2019-02-16T05:33:30.367Z,23.27
2019-02-16T05:35:57.025Z,23.27
2019-02-16T05:38:23.678Z,23.28
2019-02-16T05:40:50.339Z,23.24
2019-02-16T05:43:17.039Z,23.39
2019-02-16T05:45:43.706Z,23.56
2019-02-16T05:48:10.385Z,23.53
2019-02-16T05:50:37.044Z,23.36
2019-02-16T05:53:03.717Z,23.16
2019-02-16T05:55:30.420Z,22.99
2019-02-16T05:57:57.120Z,23.30
2019-02-16T06:00:23.776Z,23.99
2019-02-16T06:02:50.440Z,24.26
2019-02-16T06:05:17.153Z,24.17
2019-02-16T06:07:43.873Z,23.77
2019-02-16T06:10:10.515Z,24.36
2019-02-16T06:12:37.188Z,24.86
2019-02-16T06:15:03.840Z,24.79
2019-02-16T06:17:30.573Z,24.10
2019-02-16T06:19:57.241Z,24.07
2019-02-16T06:22:23.943Z,24.12
2019-02-16T06:24:50.597Z,24.15
2019-02-16T06:27:17.250Z,24.14
2019-02-16T06:29:43.999Z,24.20
2019-02-16T06:32:10.656Z,24.25
2019-02-16T06:34:37.332Z,24.28
2019-02-16T06:37:04.079Z,24.25
2019-02-16T06:39:30.752Z,24.34
2019-02-16T06:41:57.410Z,24.34
2019-02-16T06:44:24.157Z,24.38
2019-02-16T06:46:50.787Z,24.40
2019-02-16T06:49:17.643Z,24.44
2019-02-16T06:51:44.330Z,24.45
2019-02-16T06:54:11.029Z,24.50
2019-02-16T06:56:37.704Z,24.61
2019-02-16T06:59:04.381Z,24.58
2019-02-16T07:01:33.095Z,24.72
2019-02-16T07:03:57.759Z,24.71
2019-02-16T07:06:24.404Z,24.76
2019-02-16T07:08:51.050Z,24.80
2019-02-16T07:11:17.718Z,24.77
2019-02-16T07:13:44.361Z,24.78
2019-02-16T07:16:11.062Z,24.75
2019-02-16T07:18:39.559Z,24.78
2019-02-16T07:21:04.415Z,24.78
2019-02-16T07:23:31.080Z,24.75
2019-02-16T07:25:57.745Z,24.76
2019-02-16T07:28:24.408Z,24.76
2019-02-16T07:30:51.062Z,24.73
2019-02-16T07:33:17.730Z,24.71
2019-02-16T07:35:44.407Z,24.69
2019-02-16T07:38:11.112Z,24.77
2019-02-16T07:40:37.779Z,24.71
2019-02-16T07:43:04.487Z,24.79
2019-02-16T07:45:31.135Z,24.75
2019-02-16T07:47:57.898Z,24.69
2019-02-16T07:50:24.673Z,24.70
2019-02-16T07:52:51.340Z,24.69
2019-02-16T07:55:18.087Z,24.74
2019-02-16T07:57:44.752Z,24.72
2019-02-16T08:00:11.395Z,24.74
2019-02-16T08:02:38.125Z,24.62
2019-02-16T08:05:04.775Z,24.60
2019-02-16T08:07:31.440Z,24.65
2019-02-16T08:09:58.099Z,24.62
2019-02-16T08:12:24.797Z,24.58
2019-02-16T08:14:51.451Z,24.56
2019-02-16T08:17:18.158Z,24.59
2019-02-16T08:19:44.823Z,24.55
2019-02-16T08:22:11.490Z,24.48
2019-02-16T08:24:38.751Z,24.49
2019-02-16T08:27:04.944Z,24.54
2019-02-16T08:29:31.607Z,24.51
2019-02-16T08:31:58.298Z,24.49
2019-02-16T08:34:24.996Z,24.48
2019-02-16T08:36:51.676Z,24.47
2019-02-16T08:39:21.231Z,24.49
2019-02-16T08:41:49.431Z,24.49
2019-02-16T08:44:14.581Z,24.46
2019-02-16T08:46:41.247Z,24.47
2019-02-16T08:49:09.271Z,24.45
2019-02-16T08:51:34.607Z,24.46
2019-02-16T08:54:01.314Z,24.43
2019-02-16T08:56:27.978Z,24.48
2019-02-16T08:58:54.649Z,24.44
2019-02-16T09:01:21.301Z,24.45
2019-02-16T09:03:47.968Z,24.45
2019-02-16T09:06:14.624Z,24.44
2019-02-16T09:08:41.276Z,24.44
2019-02-16T09:11:07.978Z,24.43
2019-02-16T09:13:34.699Z,24.43
2019-02-16T09:16:01.357Z,24.40
2019-02-16T09:18:28.028Z,24.39
2019-02-16T09:20:54.683Z,24.45
2019-02-16T09:23:21.401Z,24.47
2019-02-16T09:25:48.058Z,24.47
2019-02-16T09:28:14.725Z,24.49
2019-02-16T09:30:41.392Z,24.48
2019-02-16T09:33:08.039Z,24.53
2019-02-16T09:35:34.753Z,24.55
2019-02-16T09:38:01.410Z,24.55
2019-02-16T09:40:28.072Z,24.58
2019-02-16T09:42:54.820Z,24.62
2019-02-16T09:45:21.515Z,24.60
2019-02-16T09:47:48.167Z,24.64
2019-02-16T09:50:14.863Z,24.64
2019-02-16T09:52:41.531Z,24.59
2019-02-16T09:55:08.195Z,24.66
2019-02-16T09:57:34.919Z,24.62
2019-02-16T10:00:01.576Z,24.70
2019-02-16T10:02:28.289Z,24.69
2019-02-16T10:04:54.925Z,24.67
2019-02-16T10:07:21.659Z,24.69
2019-02-16T10:09:48.366Z,24.75
2019-02-16T10:12:15.101Z,24.71
2019-02-16T10:14:41.719Z,24.75
2019-02-16T10:17:09.945Z,24.70
2019-02-16T10:19:35.136Z,24.74
2019-02-16T10:22:01.794Z,24.68
2019-02-16T10:24:28.538Z,24.66
2019-02-16T10:26:55.198Z,24.66
2019-02-16T10:29:21.868Z,24.60
2019-02-16T10:31:48.531Z,24.65
2019-02-16T10:34:15.243Z,24.62
2019-02-16T10:36:41.887Z,24.65
2019-02-16T10:39:08.560Z,24.59
2019-02-16T10:41:35.277Z,24.62
2019-02-16T10:44:01.951Z,24.57
2019-02-16T10:46:28.662Z,24.60
2019-02-16T10:48:55.326Z,24.59
2019-02-16T10:51:21.995Z,24.61
2019-02-16T10:53:48.731Z,24.59
2019-02-16T10:56:15.387Z,24.60
2019-02-16T10:58:42.119Z,24.51
2019-02-16T11:01:08.764Z,24.60
2019-02-16T11:03:35.434Z,24.58
2019-02-16T11:06:02.071Z,24.61
2019-02-16T11:08:28.829Z,24.60
2019-02-16T11:10:55.499Z,24.61
2019-02-16T11:13:22.155Z,24.63
2019-02-16T11:15:48.837Z,24.62
2019-02-16T11:18:15.548Z,24.57
2019-02-16T11:20:42.193Z,24.62
2019-02-16T11:23:08.868Z,24.63
2019-02-16T11:25:35.538Z,24.62
2019-02-16T11:28:02.243Z,24.65
2019-02-16T11:30:28.937Z,24.61
2019-02-16T11:32:55.655Z,24.67
2019-02-16T11:35:22.400Z,24.64
2019-02-16T11:37:49.067Z,24.62
2019-02-16T11:40:15.875Z,24.66
2019-02-16T11:42:42.560Z,24.68
2019-02-16T11:45:09.318Z,24.65
2019-02-16T11:47:35.983Z,24.67
2019-02-16T11:50:02.641Z,24.64
2019-02-16T11:52:29.365Z,24.65
2019-02-16T11:54:56.024Z,24.64
2019-02-16T11:57:22.733Z,24.67
2019-02-16T11:59:49.403Z,24.66
2019-02-16T12:02:16.141Z,24.66
2019-02-16T12:04:42.827Z,24.67
2019-02-16T12:07:09.531Z,24.71
2019-02-16T12:09:36.306Z,24.70
2019-02-16T12:12:02.845Z,24.78
2019-02-16T12:14:29.508Z,24.69
2019-02-16T12:16:56.224Z,24.71
2019-02-16T12:19:22.881Z,24.71
2019-02-16T12:21:49.555Z,24.71
2019-02-16T12:24:16.237Z,24.73
2019-02-16T12:26:42.892Z,24.72
2019-02-16T12:29:09.571Z,24.70
2019-02-16T12:31:36.258Z,24.70
2019-02-16T12:34:02.922Z,24.75
2019-02-16T12:36:29.602Z,24.76
2019-02-16T12:39:04.634Z,24.77
2019-02-16T12:41:23.000Z,24.78
2019-02-16T12:43:49.661Z,24.76
2019-02-16T12:46:16.383Z,24.75
2019-02-16T12:48:43.033Z,24.74
2019-02-16T12:51:09.694Z,24.67
2019-02-16T12:53:36.450Z,24.75
2019-02-16T12:56:03.118Z,24.76
2019-02-16T12:58:29.776Z,24.80
2019-02-16T13:00:56.493Z,24.80
2019-02-16T13:03:23.152Z,24.76
2019-02-16T13:05:49.803Z,24.76
2019-02-16T13:08:16.456Z,24.79
2019-02-16T13:10:43.176Z,24.76
2019-02-16T13:13:09.946Z,24.79
2019-02-16T13:15:36.626Z,24.75
2019-02-16T13:18:03.341Z,24.81
2019-02-16T13:20:30.001Z,24.69
2019-02-16T13:22:56.664Z,24.75
2019-02-16T13:25:24.665Z,24.76
2019-02-16T13:27:49.999Z,24.76
2019-02-16T13:30:16.652Z,24.76
2019-02-16T13:32:43.319Z,24.76
2019-02-16T13:35:10.046Z,24.73
2019-02-16T13:37:36.740Z,24.76
2019-02-16T13:40:03.455Z,24.75
2019-02-16T13:42:30.108Z,24.79
2019-02-16T13:44:56.760Z,24.77
2019-02-16T13:47:23.472Z,24.75
2019-02-16T13:49:50.151Z,24.76
2019-02-16T13:52:16.858Z,24.73
2019-02-16T13:54:43.520Z,24.44
2019-02-16T13:57:10.256Z,24.29
2019-02-16T13:59:36.920Z,24.35
2019-02-16T14:02:03.738Z,24.50
2019-02-16T14:04:30.386Z,24.58
2019-02-16T14:06:57.048Z,24.59
2019-02-16T14:09:23.720Z,24.69
2019-02-16T14:11:50.443Z,24.69
2019-02-16T14:14:17.141Z,24.71
2019-02-16T14:16:43.825Z,24.70
2019-02-16T14:19:10.484Z,24.68
2019-02-16T14:21:37.191Z,24.70
2019-02-16T14:24:03.853Z,24.67
2019-02-16T14:26:30.532Z,24.67
2019-02-16T14:28:57.194Z,24.67
2019-02-16T14:31:28.476Z,24.69
2019-02-16T14:33:50.521Z,24.67
2019-02-16T14:36:17.223Z,24.66
2019-02-16T14:38:43.884Z,24.56
2019-02-16T14:41:10.541Z,24.64
2019-02-16T14:43:37.217Z,24.64
2019-02-16T14:46:03.872Z,24.62
2019-02-16T14:48:30.574Z,24.58
2019-02-16T14:50:57.226Z,24.62
2019-02-16T14:53:23.906Z,24.58
2019-02-16T14:55:54.173Z,24.63
2019-02-16T14:58:17.324Z,24.60
2019-02-16T15:00:43.980Z,24.59
2019-02-16T15:03:10.634Z,24.58
2019-02-16T15:05:37.380Z,24.58
2019-02-16T15:08:04.043Z,24.58
2019-02-16T15:10:30.720Z,24.56
2019-02-16T15:12:57.390Z,24.59
2019-02-16T15:15:24.068Z,24.57
2019-02-16T15:17:50.792Z,24.57
2019-02-16T15:20:17.462Z,24.56
2019-02-16T15:22:44.175Z,24.56
2019-02-16T15:25:10.936Z,24.53
2019-02-16T15:27:37.517Z,24.53
2019-02-16T15:30:04.239Z,24.53
2019-02-16T15:32:30.928Z,24.44
2019-02-16T15:34:57.593Z,24.50
2019-02-16T15:37:24.302Z,24.48
2019-02-16T15:39:50.934Z,24.51
2019-02-16T15:42:17.611Z,24.44
2019-02-16T15:44:44.333Z,24.43
2019-02-16T15:47:11.000Z,24.45
2019-02-16T15:49:37.684Z,24.45
2019-02-16T15:52:04.359Z,24.35
2019-02-16T15:54:31.099Z,24.43
2019-02-16T15:56:57.769Z,24.37
2019-02-16T15:59:24.470Z,24.37
2019-02-16T16:01:51.182Z,24.39
2019-02-16T16:04:17.955Z,24.35
2019-02-16T16:06:44.614Z,24.37
2019-02-16T16:09:11.264Z,24.30
2019-02-16T16:11:37.986Z,24.33
2019-02-16T16:14:06.516Z,24.33
2019-02-16T16:16:31.483Z,24.27
2019-02-16T16:18:58.097Z,24.28
2019-02-16T16:21:24.774Z,24.27
2019-02-16T16:23:51.480Z,24.24
2019-02-16T16:26:19.601Z,24.21
2019-02-16T16:28:44.884Z,24.20
2019-02-16T16:31:11.681Z,24.22
2019-02-16T16:33:38.189Z,24.24
2019-02-16T16:36:04.915Z,24.25
2019-02-16T16:38:31.563Z,24.26
2019-02-16T16:40:58.218Z,24.26
2019-02-16T16:43:24.883Z,24.26
2019-02-16T16:45:51.527Z,24.28
2019-02-16T16:48:18.204Z,24.30
2019-02-16T16:50:44.854Z,24.29
2019-02-16T16:53:11.584Z,24.31
2019-02-16T16:55:38.354Z,24.27
2019-02-16T16:58:05.001Z,24.28
2019-02-16T17:00:31.664Z,24.26
2019-02-16T17:02:58.328Z,24.28
2019-02-16T17:05:25.143Z,24.28
2019-02-16T17:07:51.851Z,24.26
2019-02-16T17:10:18.518Z,24.27
2019-02-16T17:12:45.162Z,24.28
2019-02-16T17:15:11.827Z,24.26
2019-02-16T17:17:38.547Z,24.25
2019-02-16T17:20:05.285Z,24.23
2019-02-16T17:22:31.928Z,24.20
2019-02-16T17:24:58.582Z,24.19
2019-02-16T17:27:25.249Z,24.24
2019-02-16T17:29:51.960Z,24.17
2019-02-16T17:32:18.614Z,24.19
2019-02-16T17:34:45.278Z,24.19
2019-02-16T17:37:11.974Z,24.14
2019-02-16T17:39:38.622Z,24.18
2019-02-16T17:42:05.282Z,24.21
2019-02-16T17:44:31.932Z,24.18
2019-02-16T17:46:58.612Z,24.15
2019-02-16T17:49:25.264Z,24.14
2019-02-16T17:51:53.291Z,24.14
2019-02-16T17:54:18.580Z,24.18
2019-02-16T17:56:46.995Z,24.15
2019-02-16T17:59:11.901Z,24.17
2019-02-16T18:01:38.574Z,24.14
2019-02-16T18:04:05.271Z,24.16
2019-02-16T18:06:31.916Z,24.13
2019-02-16T18:08:58.577Z,24.14
2019-02-16T18:11:25.254Z,24.10
2019-02-16T18:13:51.955Z,24.12
2019-02-16T18:16:18.734Z,24.04
2019-02-16T18:18:45.400Z,24.05
2019-02-16T18:21:12.040Z,24.10
2019-02-16T18:23:38.842Z,24.04
2019-02-16T18:26:05.552Z,24.05
2019-02-16T18:28:32.222Z,24.04
2019-02-16T18:30:58.884Z,24.07
2019-02-16T18:33:25.595Z,24.05
2019-02-16T18:35:52.317Z,24.00
2019-02-16T18:38:19.078Z,24.02
2019-02-16T18:40:45.694Z,23.97
2019-02-16T18:43:13.747Z,24.02
2019-02-16T18:45:39.053Z,23.98
2019-02-16T18:48:05.779Z,23.99
2019-02-16T18:50:32.446Z,23.94
2019-02-16T18:52:59.167Z,23.93
2019-02-16T18:55:25.823Z,23.96
2019-02-16T18:57:52.484Z,23.97
2019-02-16T19:00:19.191Z,23.99
2019-02-16T19:02:45.840Z,23.97
2019-02-16T19:05:12.479Z,23.94
2019-02-16T19:07:39.238Z,23.97
2019-02-16T19:10:05.977Z,23.95
2019-02-16T19:12:32.630Z,23.95
2019-02-16T19:14:59.342Z,23.95
2019-02-16T19:17:26.004Z,23.94
2019-02-16T19:19:52.701Z,23.96
2019-02-16T19:22:19.413Z,23.99
2019-02-16T19:24:46.073Z,23.96
2019-02-16T19:27:16.693Z,23.97
2019-02-16T19:29:39.385Z,23.90
2019-02-16T19:32:06.041Z,23.97
2019-02-16T19:34:32.748Z,23.91
2019-02-16T19:36:59.396Z,23.96
2019-02-16T19:39:26.059Z,23.92
2019-02-16T19:41:52.761Z,23.90
2019-02-16T19:44:19.465Z,23.96
2019-02-16T19:46:48.801Z,23.95
2019-02-16T19:49:15.517Z,23.95
2019-02-16T19:51:42.179Z,23.91
2019-02-16T19:54:08.844Z,23.88
2019-02-16T19:56:35.519Z,23.87
2019-02-16T19:59:02.315Z,23.85
2019-02-16T20:01:28.972Z,23.88
2019-02-16T20:03:55.651Z,23.88
2019-02-16T20:06:22.359Z,23.85
2019-02-16T20:08:49.027Z,23.90
2019-02-16T20:11:15.688Z,23.84
2019-02-16T20:13:43.941Z,23.86
2019-02-16T20:16:09.053Z,23.77
2019-02-16T20:18:35.704Z,23.78
2019-02-16T20:21:02.397Z,23.81
2019-02-16T20:23:29.070Z,23.83
2019-02-16T20:25:55.721Z,23.76
2019-02-16T20:28:22.450Z,23.76
2019-02-16T20:30:49.124Z,23.77
2019-02-16T20:33:15.845Z,23.80
2019-02-16T20:35:42.495Z,23.69
2019-02-16T20:38:09.166Z,23.72
2019-02-16T20:40:35.874Z,23.71
2019-02-16T20:43:02.587Z,23.73
2019-02-16T20:45:29.252Z,23.69
2019-02-16T20:47:55.903Z,23.68
2019-02-16T20:50:22.674Z,23.66
2019-02-16T20:52:49.254Z,23.68
2019-02-16T20:55:15.974Z,23.66
2019-02-16T20:57:47.702Z,23.67
2019-02-16T21:00:09.322Z,23.61
2019-02-16T21:02:36.013Z,23.64
2019-02-16T21:05:02.735Z,23.60
2019-02-16T21:07:29.431Z,23.59
2019-02-16T21:09:56.168Z,23.58
2019-02-16T21:12:22.854Z,23.62
2019-02-16T21:14:49.557Z,23.56
2019-02-16T21:17:16.249Z,23.56
2019-02-16T21:19:42.989Z,23.53
2019-02-16T21:22:09.655Z,23.50
2019-02-16T21:24:36.348Z,23.49
2019-02-16T21:27:02.994Z,23.51
2019-02-16T21:29:29.712Z,23.48
2019-02-16T21:31:56.487Z,23.52
2019-02-16T21:34:23.090Z,23.47
2019-02-16T21:36:49.740Z,23.54
2019-02-16T21:39:16.486Z,23.47
2019-02-16T21:41:43.203Z,23.46
2019-02-16T21:44:13.801Z,23.46
2019-02-16T21:46:39.079Z,23.42
2019-02-16T21:49:05.800Z,23.49
2019-02-16T21:51:32.490Z,23.42
2019-02-16T21:53:59.138Z,23.27
2019-02-16T21:56:25.790Z,23.09
2019-02-16T21:58:52.467Z,22.90
2019-02-16T22:01:19.273Z,22.81
2019-02-16T22:03:45.915Z,22.86
2019-02-16T22:06:12.579Z,22.96
2019-02-16T22:08:39.234Z,23.06
2019-02-16T22:11:05.893Z,23.08
2019-02-16T22:13:32.597Z,23.20
2019-02-16T22:15:59.261Z,23.22
2019-02-16T22:18:25.914Z,23.27
2019-02-16T22:20:52.630Z,23.23
2019-02-16T22:23:19.246Z,23.25
2019-02-16T22:25:45.921Z,23.34
2019-02-16T22:28:18.597Z,23.30
2019-02-16T22:30:39.297Z,23.32
2019-02-16T22:33:05.973Z,23.34
2019-02-16T22:35:32.618Z,23.35
2019-02-16T22:37:59.329Z,23.34
2019-02-16T22:40:25.990Z,23.41
2019-02-16T22:42:52.706Z,23.36
2019-02-16T22:45:19.367Z,23.41
2019-02-16T22:47:46.074Z,23.41
2019-02-16T22:50:12.805Z,23.34
2019-02-16T22:52:39.454Z,23.42
2019-02-16T22:55:06.115Z,23.42
2019-02-16T22:57:32.794Z,23.40
2019-02-16T22:59:59.453Z,23.41
2019-02-16T23:02:26.135Z,23.38
2019-02-16T23:04:52.935Z,23.36
2019-02-16T23:07:19.585Z,23.41
2019-02-16T23:09:46.287Z,23.41
2019-02-16T23:12:12.942Z,23.40
2019-02-16T23:14:39.644Z,23.39
2019-02-16T23:17:06.298Z,23.41
2019-02-16T23:19:32.952Z,23.38
2019-02-16T23:21:59.603Z,23.45
2019-02-16T23:24:26.340Z,23.40
2019-02-16T23:26:52.982Z,23.40
2019-02-16T23:29:19.636Z,23.39
2019-02-16T23:31:46.291Z,23.40
2019-02-16T23:34:12.940Z,23.40
2019-02-16T23:36:39.581Z,23.39
2019-02-16T23:39:06.249Z,23.37
2019-02-16T23:41:32.924Z,23.39
2019-02-16T23:43:59.612Z,23.35
2019-02-16T23:46:26.258Z,23.37
2019-02-16T23:48:52.913Z,23.41
2019-02-16T23:51:19.592Z,23.40
2019-02-16T23:53:46.254Z,23.39
2019-02-16T23:56:15.898Z,23.38
2019-02-16T23:58:48.959Z,23.39
